Time;durP1;ratioP1;P1;durP2;ratioP2;P2;SDS_P1;SDS_P2;PMS_P1;PMS_P2;Temp;Humidity;BMP_temperature;BMP_pressure;BME280_temperature;BME280_humidity;BME280_pressure;Samples;Min_cycle;Max_cycle;Signal;HPM_P1;HPM_P2
2022/12/27 00:01:18;;;;;;;6.20;5.90;;;;;;;4.89;100.00;97530.88;4958700;28;20558;-81
2022/12/27 00:03:44;;;;;;;4.60;4.30;;;;;;;4.85;100.00;97524.38;4958817;28;20652;-81
2022/12/27 00:06:17;;;;;;;4.30;4.00;;;;;;;4.79;100.00;97537.28;4958698;28;20197;-80
2022/12/27 00:08:43;;;;;;;5.53;5.07;;;;;;;4.75;100.00;97526.41;4976193;28;20188;-80
2022/12/27 00:11:11;;;;;;;7.23;5.27;;;;;;;4.80;100.00;97528.47;4975660;28;20193;-82
2022/12/27 00:13:36;;;;;;;4.83;4.47;;;;;;;4.68;100.00;97528.06;4975503;28;20196;-81
2022/12/27 00:16:08;;;;;;;7.10;6.70;;;;;;;4.64;100.00;97532.00;4975664;28;20192;-81
2022/12/27 00:18:34;;;;;;;5.57;5.10;;;;;;;4.68;100.00;97540.25;4958316;28;20181;-82
2022/12/27 00:21:00;;;;;;;4.37;3.87;;;;;;;4.58;100.00;97543.84;4975616;28;20267;-82
2022/12/27 00:23:26;;;;;;;7.57;5.57;;;;;;;4.60;100.00;97546.28;4958163;28;20188;-81
2022/12/27 00:25:58;;;;;;;3.93;3.63;;;;;;;4.67;100.00;97547.25;4958266;28;20185;-82
2022/12/27 00:28:23;;;;;;;6.27;4.83;;;;;;;4.62;100.00;97543.53;4974820;28;20199;-82
2022/12/27 00:30:53;;;;;;;6.73;4.60;;;;;;;4.52;100.00;97552.31;4975565;28;20192;-82
2022/12/27 00:33:19;;;;;;;4.50;4.20;;;;;;;4.51;100.00;97555.13;4975512;28;20160;-81
2022/12/27 00:35:44;;;;;;;6.63;4.50;;;;;;;4.44;100.00;97562.75;4975187;28;20581;-81
2022/12/27 00:38:09;;;;;;;4.50;4.07;;;;;;;4.45;100.00;97560.97;4976077;28;20216;-81
2022/12/27 00:40:38;;;;;;;5.30;4.83;;;;;;;4.48;100.00;97569.22;4957212;28;20208;-82
2022/12/27 00:43:04;;;;;;;4.73;4.43;;;;;;;4.43;100.00;97584.50;4957239;28;20196;-81
2022/12/27 00:45:29;;;;;;;4.60;4.20;;;;;;;4.47;100.00;97593.56;4975079;28;20189;-81
2022/12/27 00:47:54;;;;;;;3.93;3.73;;;;;;;4.49;100.00;97598.59;4974827;28;20204;-81
2022/12/27 00:50:20;;;;;;;4.47;4.17;;;;;;;4.47;100.00;97603.94;4954323;28;20192;-81
2022/12/27 00:52:45;;;;;;;4.67;4.13;;;;;;;4.47;100.00;97603.13;4971965;28;20188;-81
2022/12/27 00:55:10;;;;;;;4.07;3.63;;;;;;;4.41;100.00;97611.56;4974598;28;20235;-82
2022/12/27 00:57:36;;;;;;;4.30;3.80;;;;;;;4.34;100.00;97619.25;4975200;28;20200;-81
2022/12/27 01:00:03;;;;;;;3.80;3.57;;;;;;;4.32;100.00;97628.16;4957276;28;20660;-81
2022/12/27 01:02:28;;;;;;;4.37;3.93;;;;;;;4.38;100.00;97641.28;4975112;28;20221;-81
2022/12/27 01:04:56;;;;;;;3.43;3.13;;;;;;;4.45;100.00;97638.84;4974926;28;20228;-80
2022/12/27 01:07:22;;;;;;;6.47;5.97;;;;;;;4.27;100.00;97649.41;4974882;28;20661;-80
2022/12/27 01:09:47;;;;;;;5.63;4.73;;;;;;;4.25;100.00;97655.72;4958016;28;20193;-81
2022/12/27 01:12:13;;;;;;;5.47;5.17;;;;;;;4.21;100.00;97657.03;4974888;28;20214;-80
2022/12/27 01:14:38;;;;;;;5.10;4.73;;;;;;;4.08;100.00;97666.13;4974490;28;20192;-81
2022/12/27 01:17:03;;;;;;;4.83;4.53;;;;;;;4.09;100.00;97672.13;4957119;28;20181;-81
2022/12/27 01:19:29;;;;;;;4.27;3.87;;;;;;;4.14;100.00;97677.63;4974624;28;20192;-81
2022/12/27 01:21:54;;;;;;;4.17;3.73;;;;;;;4.15;100.00;97679.28;4956490;28;20204;-81
2022/12/27 01:24:19;;;;;;;5.20;4.07;;;;;;;4.23;100.00;97683.66;4974410;28;20193;-80
2022/12/27 01:26:45;;;;;;;4.00;3.80;;;;;;;4.33;100.00;97685.09;4957087;28;20185;-81
2022/12/27 01:29:11;;;;;;;4.23;3.97;;;;;;;4.35;100.00;97687.50;4955920;28;20192;-81
2022/12/27 01:31:37;;;;;;;5.00;4.60;;;;;;;4.21;100.00;97696.78;4974157;28;20279;-81
2022/12/27 01:34:03;;;;;;;8.33;4.27;;;;;;;4.03;100.00;97704.72;4974128;28;20215;-81
2022/12/27 01:36:30;;;;;;;4.00;3.80;;;;;;;4.06;100.00;97703.59;4956838;28;20200;-81
2022/12/27 01:38:56;;;;;;;4.97;4.43;;;;;;;4.01;100.00;97706.66;4974236;28;20188;-81
2022/12/27 01:44:36;;;;;;;5.27;4.80;;;;;;;3.85;100.00;97700.66;4974096;28;20184;-81
2022/12/27 01:47:08;;;;;;;5.53;4.23;;;;;;;3.68;100.00;97702.44;4956578;28;20192;-81
2022/12/27 01:49:34;;;;;;;4.40;4.10;;;;;;;3.71;100.00;97699.53;4974064;28;20205;-81
2022/12/27 01:51:59;;;;;;;5.00;4.60;;;;;;;3.65;100.00;97706.19;4974120;28;20203;-81
2022/12/27 01:54:24;;;;;;;5.00;4.57;;;;;;;3.50;100.00;97705.19;4967062;28;20258;-81
2022/12/27 01:56:50;;;;;;;5.03;4.53;;;;;;;3.55;100.00;97708.09;4937536;29;20197;-81
2022/12/27 01:59:15;;;;;;;4.60;4.30;;;;;;;3.57;100.00;97720.88;4953577;28;20197;-81
2022/12/27 02:01:46;;;;;;;4.57;4.17;;;;;;;3.59;100.00;97716.38;4937539;29;20208;-81
2022/12/27 02:04:15;;;;;;;4.70;4.40;;;;;;;3.40;100.00;97716.66;4954815;29;20189;-81
2022/12/27 02:06:41;;;;;;;4.73;4.10;;;;;;;3.49;100.00;97721.69;4954607;29;20193;-81
2022/12/27 02:09:17;;;;;;;3.93;3.67;;;;;;;3.44;100.00;97730.91;4954083;29;20224;-81
2022/12/27 02:11:52;;;;;;;4.20;3.90;;;;;;;3.42;100.00;97731.06;4953922;29;20640;-81
2022/12/27 02:14:30;;;;;;;4.20;3.80;;;;;;;3.45;100.00;97732.53;4954983;29;20176;-81
2022/12/27 02:16:59;;;;;;;4.90;4.60;;;;;;;3.40;100.00;97732.22;4954265;29;20645;-81
2022/12/27 02:19:36;;;;;;;4.90;4.43;;;;;;;3.29;100.00;97741.06;4953668;29;20595;-81
2022/12/27 02:22:23;;;;;;;3.97;3.63;;;;;;;3.37;100.00;97729.91;4954449;29;20177;-82
2022/12/27 02:25:03;;;;;;;4.40;4.10;;;;;;;3.26;100.00;97731.03;4939180;29;20209;-81
2022/12/27 02:28:00;;;;;;;4.70;4.37;;;;;;;3.29;100.00;97739.28;4921022;29;20196;-81
2022/12/27 02:30:30;;;;;;;5.30;4.40;;;;;;;3.36;100.00;97742.06;4954321;29;20633;-82
2022/12/27 02:33:05;;;;;;;5.37;5.07;;;;;;;3.16;100.00;97744.13;4954250;29;20601;-81
2022/12/27 02:35:51;;;;;;;4.77;4.57;;;;;;;3.14;100.00;97746.03;4954528;29;20188;-82
2022/12/27 02:38:23;;;;;;;4.93;4.53;;;;;;;3.14;100.00;97743.44;4954691;29;20224;-81
2022/12/27 02:55:22;;;;;;;4.37;4.17;;;;;;;3.06;100.00;97743.44;4964923;28;20711;-81
2022/12/27 02:58:21;;;;;;;4.50;4.30;;;;;;;3.01;100.00;97747.44;4973312;28;20573;-81
2022/12/27 03:04:22;;;;;;;4.70;4.40;;;;;;;3.06;100.00;97761.56;4963277;28;20570;-82
2022/12/27 03:07:03;;;;;;;4.77;4.33;;;;;;;3.05;100.00;97751.34;4973794;28;20304;-81
2022/12/27 03:15:56;;;;;;;5.20;4.80;;;;;;;2.95;100.00;97766.19;4976741;28;20227;-81
2022/12/27 03:19:01;;;;;;;4.70;4.40;;;;;;;2.85;100.00;97769.69;4976626;28;20224;-82
2022/12/27 03:27:27;;;;;;;6.30;4.03;;;;;;;2.90;100.00;97767.44;4975942;28;20200;-81
2022/12/27 03:38:01;;;;;;;4.23;4.03;;;;;;;2.90;100.00;97764.03;4976539;28;20179;-81
2022/12/27 03:38:35;;;;;;;4.23;3.93;;;;;;;2.88;100.00;97768.59;4975844;28;20192;-81
2022/12/27 03:43:49;;;;;;;4.67;4.27;;;;;;;2.93;100.00;97779.28;4975886;28;20187;-81
2022/12/27 03:46:32;;;;;;;4.80;4.43;;;;;;;2.98;100.00;97782.22;4958841;28;20192;-81
2022/12/27 03:49:16;;;;;;;4.67;4.27;;;;;;;2.89;100.00;97780.56;4976170;28;20271;-81
2022/12/27 03:51:47;;;;;;;4.97;4.67;;;;;;;2.87;100.00;97785.06;4976270;28;20631;-81
2022/12/27 03:54:25;;;;;;;4.77;4.47;;;;;;;2.93;100.00;97782.69;4976002;28;20220;-81
2022/12/27 03:56:52;;;;;;;4.63;4.30;;;;;;;2.92;100.00;97783.66;4976853;28;20517;-81
2022/12/27 03:59:18;;;;;;;4.50;4.20;;;;;;;2.90;100.00;97782.97;4976093;28;20747;-82
2022/12/27 04:01:43;;;;;;;4.30;3.90;;;;;;;2.86;100.00;97780.84;4958832;28;20204;-81
2022/12/27 04:04:08;;;;;;;4.23;4.03;;;;;;;2.87;100.00;97787.66;4975896;28;20252;-81
2022/12/27 04:06:34;;;;;;;4.37;4.17;;;;;;;2.89;100.00;97785.75;4957623;28;20204;-81
2022/12/27 04:36:18;;;;;;;4.00;3.70;;;;;;;2.75;100.00;97781.13;4975321;28;20251;-81
2022/12/27 04:38:43;;;;;;;4.90;4.50;;;;;;;2.78;100.00;97789.41;4975634;28;20283;-81
2022/12/27 04:54:59;;;;;;;4.10;3.80;;;;;;;2.60;100.00;97790.41;4974793;28;20754;-82
2022/12/27 04:57:26;;;;;;;4.30;4.03;;;;;;;2.56;100.00;97794.28;4975014;28;20204;-82
2022/12/27 05:02:35;;;;;;;4.50;4.10;;;;;;;2.38;100.00;97802.06;4975330;28;20562;-82
2022/12/27 05:05:01;;;;;;;3.87;3.67;;;;;;;2.36;100.00;97802.19;4975480;28;20193;-81
2022/12/27 05:15:47;;;;;;;4.23;3.83;;;;;;;2.28;100.00;97804.75;4974242;28;20195;-82
2022/12/27 05:18:12;;;;;;;4.67;4.30;;;;;;;2.35;100.00;97802.34;4957109;28;20192;-81
2022/12/27 05:20:37;;;;;;;4.83;4.20;;;;;;;2.30;100.00;97800.22;4973928;28;20204;-82
2022/12/27 05:25:46;;;;;;;5.10;4.27;;;;;;;2.22;100.00;97799.34;4974118;28;20552;-82
2022/12/27 05:28:12;;;;;;;4.23;3.83;;;;;;;2.24;100.00;97805.16;4973784;28;20192;-82
2022/12/27 05:30:42;;;;;;;4.43;4.03;;;;;;;2.25;100.00;97812.78;4974304;28;20185;-82
2022/12/27 05:33:08;;;;;;;4.53;4.17;;;;;;;2.28;100.00;97809.09;4974077;28;20185;-82
2022/12/27 05:35:34;;;;;;;4.00;3.80;;;;;;;2.29;100.00;97814.09;4973377;28;20212;-82
2022/12/27 05:38:00;;;;;;;4.40;4.00;;;;;;;2.26;100.00;97819.59;4955856;28;20263;-82
2022/12/27 05:40:26;;;;;;;4.73;4.30;;;;;;;2.25;100.00;97812.78;4973838;28;20678;-81
2022/12/27 05:42:52;;;;;;;3.80;3.63;;;;;;;2.29;100.00;97824.44;4962655;28;20264;-82
2022/12/27 05:45:18;;;;;;;5.27;4.97;;;;;;;2.27;100.00;97823.00;4970431;28;20181;-81
2022/12/27 05:47:44;;;;;;;6.17;4.60;;;;;;;2.25;100.00;97824.91;4976189;28;20670;-82
2022/12/27 05:50:09;;;;;;;4.50;4.20;;;;;;;2.30;100.00;97826.06;4975951;28;20189;-82
2022/12/27 05:52:35;;;;;;;5.23;4.80;;;;;;;2.20;100.00;97829.69;4976419;28;20635;-83
2022/12/27 05:55:00;;;;;;;4.70;4.30;;;;;;;2.19;100.00;97835.84;4962003;28;20220;-82
2022/12/27 05:57:26;;;;;;;5.20;4.27;;;;;;;2.12;100.00;97838.19;4976729;28;20192;-82
2022/12/27 05:59:51;;;;;;;5.10;4.63;;;;;;;2.15;100.00;97848.25;4967955;28;20196;-82
2022/12/27 06:02:17;;;;;;;4.77;4.23;;;;;;;2.05;100.00;97855.28;4976878;28;20651;-82
2022/12/27 06:04:42;;;;;;;4.80;4.33;;;;;;;2.01;100.00;97853.91;4975925;28;20203;-82
2022/12/27 06:07:12;;;;;;;4.63;4.33;;;;;;;1.91;100.00;97848.81;4973842;28;20184;-82
2022/12/27 06:09:38;;;;;;;5.63;4.43;;;;;;;1.89;100.00;97837.84;4974582;28;20188;-81
2022/12/27 06:12:03;;;;;;;4.90;4.30;;;;;;;1.80;100.00;97840.47;4958436;28;20184;-82
2022/12/27 06:14:29;;;;;;;4.33;4.03;;;;;;;1.85;100.00;97843.41;4978138;28;20189;-82
2022/12/27 06:16:54;;;;;;;8.07;4.67;;;;;;;1.80;100.00;97832.69;4985570;28;20207;-82
2022/12/27 06:19:19;;;;;;;4.67;4.37;;;;;;;1.82;100.00;97836.78;4984106;28;20275;-82
2022/12/27 06:21:45;;;;;;;5.50;4.50;;;;;;;1.75;100.00;97832.34;4983189;28;20204;-82
2022/12/27 06:24:10;;;;;;;5.23;4.33;;;;;;;1.76;100.00;97837.38;4984287;28;20200;-81
2022/12/27 06:26:35;;;;;;;4.83;4.50;;;;;;;1.78;100.00;97838.03;4980768;28;20200;-82
2022/12/27 06:29:00;;;;;;;4.73;4.33;;;;;;;1.81;100.00;97839.50;4976507;28;20248;-82
2022/12/27 06:31:26;;;;;;;4.97;4.57;;;;;;;1.73;100.00;97847.19;4963768;28;20221;-82
2022/12/27 06:33:53;;;;;;;5.30;4.80;;;;;;;1.63;100.00;97844.63;4982032;28;20575;-82
2022/12/27 06:36:20;;;;;;;6.10;5.07;;;;;;;1.53;100.00;97839.53;4983407;28;20212;-82
2022/12/27 06:38:47;;;;;;;5.27;4.60;;;;;;;1.62;100.00;97848.16;4967531;28;20177;-82
2022/12/27 06:41:16;;;;;;;6.17;4.60;;;;;;;1.52;100.00;97848.22;4966092;28;20205;-81
2022/12/27 06:43:42;;;;;;;5.20;4.80;;;;;;;1.47;100.00;97845.25;4980292;28;20189;-82
2022/12/27 06:46:11;;;;;;;5.30;4.90;;;;;;;1.55;100.00;97847.13;4980406;28;20561;-83
2022/12/27 06:48:37;;;;;;;5.87;5.30;;;;;;;1.56;100.00;97849.56;4984081;28;20188;-82
2022/12/27 06:51:07;;;;;;;6.00;5.30;;;;;;;1.61;100.00;97856.91;4983653;28;20191;-83
2022/12/27 06:53:35;;;;;;;5.50;5.20;;;;;;;1.62;100.00;97863.66;4984210;28;20185;-82
2022/12/27 06:56:04;;;;;;;9.77;5.50;;;;;;;1.61;100.00;97862.06;4984651;28;20216;-83
2022/12/27 06:58:29;;;;;;;5.43;5.03;;;;;;;1.54;100.00;97867.00;4981244;28;20197;-83
2022/12/27 07:00:54;;;;;;;6.23;5.70;;;;;;;1.55;100.00;97862.63;4980227;28;20217;-81
2022/12/27 07:03:20;;;;;;;5.57;5.17;;;;;;;1.54;100.00;97863.59;4960380;28;20233;-80
2022/12/27 07:05:45;;;;;;;6.00;5.60;;;;;;;1.62;100.00;97859.31;4977054;28;20529;-81
2022/12/27 07:08:10;;;;;;;5.53;5.13;;;;;;;1.58;100.00;97862.34;4978125;28;20667;-82
2022/12/27 07:10:36;;;;;;;6.23;5.57;;;;;;;1.59;100.00;97872.53;4982941;28;20196;-81
2022/12/27 07:13:01;;;;;;;5.23;4.83;;;;;;;1.62;100.00;97880.00;4991066;28;20193;-81
2022/12/27 07:15:27;;;;;;;5.67;5.17;;;;;;;1.58;100.00;97878.66;4995469;28;20184;-82
2022/12/27 07:17:52;;;;;;;5.93;5.13;;;;;;;1.52;100.00;97884.38;4994443;28;20244;-81
2022/12/27 07:20:17;;;;;;;6.13;5.17;;;;;;;1.57;100.00;97878.78;4989520;28;20224;-80
2022/12/27 07:22:43;;;;;;;5.40;4.90;;;;;;;1.68;100.00;97876.03;4987147;28;20201;-80
2022/12/27 07:25:08;;;;;;;5.83;5.10;;;;;;;1.54;100.00;97887.66;4982969;28;20235;-81
2022/12/27 07:27:35;;;;;;;4.83;4.53;;;;;;;1.63;100.00;97875.63;4981796;28;20196;-80
2022/12/27 07:30:01;;;;;;;5.67;5.17;;;;;;;1.63;100.00;97884.22;4965227;28;20196;-80
2022/12/27 07:32:26;;;;;;;5.20;4.73;;;;;;;1.79;100.00;97875.81;4960460;28;20651;-81
2022/12/27 07:34:52;;;;;;;4.37;4.13;;;;;;;1.77;100.00;97885.50;4959158;28;20185;-80
2022/12/27 07:37:17;;;;;;;4.43;4.17;;;;;;;1.75;100.00;97884.81;4976417;28;20180;-80
2022/12/27 07:39:43;;;;;;;4.87;4.50;;;;;;;1.83;100.00;97890.09;4978373;28;20188;-80
2022/12/27 07:42:08;;;;;;;5.47;5.00;;;;;;;2.05;100.00;97884.53;4977141;28;20208;-81
2022/12/27 07:44:34;;;;;;;5.27;4.87;;;;;;;2.17;100.00;97889.50;4976884;28;20252;-81
2022/12/27 07:46:59;;;;;;;4.60;4.30;;;;;;;2.13;100.00;97894.13;4978118;28;20184;-80
2022/12/27 07:49:24;;;;;;;5.13;4.23;;;;;;;2.12;100.00;97891.72;4978018;28;20632;-81
2022/12/27 07:51:50;;;;;;;5.13;4.73;;;;;;;2.27;100.00;97898.81;4978158;28;20596;-81
2022/12/27 07:54:15;;;;;;;5.27;4.87;;;;;;;2.24;100.00;97888.75;4977221;28;20263;-81
2022/12/27 07:56:40;;;;;;;6.17;4.80;;;;;;;2.24;100.00;97888.75;4977837;28;20189;-81
2022/12/27 07:59:11;;;;;;;4.90;4.60;;;;;;;2.37;100.00;97883.22;4978180;28;20623;-81
2022/12/27 08:04:20;;;;;;;4.53;4.23;;;;;;;2.42;100.00;97886.97;4977204;28;20219;-80
2022/12/27 08:06:46;;;;;;;4.87;4.47;;;;;;;2.53;100.00;97887.72;4976504;28;20527;-80
2022/12/27 08:09:13;;;;;;;5.37;4.97;;;;;;;2.55;100.00;97891.78;4976903;28;20219;-79
2022/12/27 08:11:39;;;;;;;5.03;4.63;;;;;;;2.69;100.00;97880.88;4978267;28;20181;-79
2022/12/27 08:14:04;;;;;;;4.83;4.50;;;;;;;2.66;100.00;97877.78;4975774;28;20647;-79
2022/12/27 08:16:29;;;;;;;5.60;5.10;;;;;;;2.73;100.00;97881.41;4959890;28;20207;-78
2022/12/27 08:18:55;;;;;;;5.20;4.83;;;;;;;2.84;100.00;97873.41;4977264;28;20667;-78
2022/12/27 08:21:21;;;;;;;7.03;5.47;;;;;;;2.78;100.00;97880.00;4975464;28;20219;-78
2022/12/27 08:23:47;;;;;;;7.43;7.03;;;;;;;3.01;100.00;97877.72;4982345;28;20188;-79
2022/12/27 08:26:12;;;;;;;10.07;9.37;;;;;;;2.85;100.00;97875.00;4959595;28;20550;-80
2022/12/27 08:28:37;;;;;;;8.87;8.30;;;;;;;2.85;100.00;97878.41;4975314;28;20181;-80
2022/12/27 08:31:08;;;;;;;9.30;8.73;;;;;;;2.82;100.00;97880.50;4975645;28;20726;-80
2022/12/27 08:33:34;;;;;;;6.57;6.07;;;;;;;3.06;100.00;97888.44;4975852;28;20192;-80
2022/12/27 08:36:06;;;;;;;6.43;5.90;;;;;;;2.92;100.00;97887.22;4979843;28;20212;-79
2022/12/27 08:38:32;;;;;;;5.70;5.33;;;;;;;3.09;100.00;97888.13;4979558;28;20644;-78
2022/12/27 08:40:58;;;;;;;6.43;5.83;;;;;;;2.95;100.00;97883.53;4979760;28;20200;-80
2022/12/27 08:43:23;;;;;;;6.30;5.47;;;;;;;3.02;100.00;97883.69;4977098;28;20248;-79
2022/12/27 08:45:49;;;;;;;6.87;5.20;;;;;;;3.13;100.00;97891.22;4978482;28;20199;-79
2022/12/27 08:48:15;;;;;;;5.10;4.70;;;;;;;3.20;100.00;97884.47;4977124;28;20184;-80
2022/12/27 08:50:41;;;;;;;5.00;4.50;;;;;;;3.26;100.00;97889.03;4979282;28;20193;-78
2022/12/27 08:53:06;;;;;;;5.47;4.77;;;;;;;3.20;100.00;97894.84;4978602;28;20551;-80
2022/12/27 08:55:32;;;;;;;5.90;5.33;;;;;;;3.16;100.00;97891.75;4978011;28;20339;-79
2022/12/27 08:58:00;;;;;;;5.23;4.80;;;;;;;3.21;100.00;97886.91;4977248;28;20203;-79
2022/12/27 09:00:26;;;;;;;20.47;19.20;;;;;;;3.31;100.00;97892.00;4976593;28;20243;-76
2022/12/27 09:02:52;;;;;;;5.40;5.00;;;;;;;3.35;100.00;97901.06;4975738;28;20201;-77
2022/12/27 09:05:18;;;;;;;4.40;4.07;;;;;;;3.46;100.00;97902.56;4975633;28;20256;-77
2022/12/27 09:07:44;;;;;;;5.20;4.80;;;;;;;3.43;100.00;97897.72;4977335;28;20644;-77
2022/12/27 09:10:10;;;;;;;5.27;4.40;;;;;;;3.52;100.00;97900.19;4975355;28;20539;-77
2022/12/27 09:12:35;;;;;;;4.73;4.43;;;;;;;3.67;100.00;97901.25;4974278;28;20263;-78
2022/12/27 09:15:01;;;;;;;4.90;4.37;;;;;;;3.57;100.00;97908.31;4974339;28;20210;-78
2022/12/27 09:17:26;;;;;;;4.90;4.50;;;;;;;3.58;100.00;97912.53;4974345;28;20179;-78
2022/12/27 09:19:52;;;;;;;6.07;5.37;;;;;;;3.85;100.00;97910.69;4971280;28;20525;-78
2022/12/27 09:22:17;;;;;;;6.90;5.87;;;;;;;3.65;100.00;97910.13;4974802;28;20639;-77
2022/12/27 09:24:42;;;;;;;5.23;4.73;;;;;;;3.48;100.00;97918.78;4974143;28;20558;-77
2022/12/27 09:27:07;;;;;;;5.50;4.83;;;;;;;3.52;100.00;97918.34;4973956;28;20251;-77
2022/12/27 09:29:33;;;;;;;5.87;5.10;;;;;;;3.46;100.00;97913.75;4975261;28;20200;-77
2022/12/27 09:31:58;;;;;;;6.37;5.37;;;;;;;3.50;100.00;97916.88;4974735;28;20654;-76
2022/12/27 09:34:24;;;;;;;6.30;5.70;;;;;;;3.48;100.00;97916.22;4973923;28;20192;-75
2022/12/27 09:36:49;;;;;;;6.27;5.67;;;;;;;3.42;100.00;97924.59;4974967;28;20549;-78
2022/12/27 09:39:16;;;;;;;9.00;8.27;;;;;;;3.53;100.00;97924.31;4975858;28;20180;-79
2022/12/27 09:41:59;;;;;;;9.13;8.47;;;;;;;3.49;100.00;97925.63;4980709;28;20219;-78
2022/12/27 09:44:39;;;;;;;9.17;8.47;;;;;;;3.53;100.00;97922.56;4986317;28;20272;-78
2022/12/27 09:47:16;;;;;;;9.90;9.23;;;;;;;3.64;100.00;97924.88;4988356;28;20196;-79
2022/12/27 09:49:50;;;;;;;9.00;8.37;;;;;;;3.68;100.00;97928.78;4990871;28;20188;-78
2022/12/27 09:52:20;;;;;;;6.60;6.00;;;;;;;3.73;100.00;97923.16;4981894;28;20212;-79
2022/12/27 09:54:53;;;;;;;5.00;4.57;;;;;;;3.71;100.00;97925.88;4976884;28;20224;-78
2022/12/27 09:57:46;;;;;;;5.33;5.03;;;;;;;3.89;100.00;97931.00;4975570;28;20636;-78
2022/12/27 10:00:16;;;;;;;5.97;5.37;;;;;;;3.78;100.00;97920.09;4970780;28;20228;-78
2022/12/27 10:02:45;;;;;;;5.77;5.27;;;;;;;3.86;100.00;97920.09;4973910;28;20189;-78
2022/12/27 10:05:19;;;;;;;16.13;15.03;;;;;;;4.14;100.00;97909.34;4974120;28;20212;-78
2022/12/27 10:08:26;;;;;;;6.20;5.70;;;;;;;3.89;100.00;97922.41;4958412;28;20286;-78
2022/12/27 10:11:07;;;;;;;6.37;4.87;;;;;;;4.19;100.00;97917.47;4977076;28;20188;-77
2022/12/27 10:13:53;;;;;;;5.63;5.13;;;;;;;4.26;100.00;97922.03;4973701;28;20180;-75
2022/12/27 10:16:34;;;;;;;5.30;4.87;;;;;;;4.32;100.00;97931.78;4973618;28;20184;-76
2022/12/27 10:19:22;;;;;;;6.17;5.77;;;;;;;4.27;100.00;97929.66;4963192;28;20215;-76
2022/12/27 10:22:01;;;;;;;9.47;8.67;;;;;;;4.30;100.00;97918.94;4971710;28;20247;-75
2022/12/27 10:24:37;;;;;;;6.97;6.27;;;;;;;4.40;100.00;97914.41;4977652;28;20203;-75
2022/12/27 10:27:13;;;;;;;6.00;4.27;;;;;;;4.49;100.00;97915.25;4976818;28;20202;-76
2022/12/27 10:29:38;;;;;;;5.63;4.90;;;;;;;4.63;100.00;97906.81;4977159;28;20182;-76
2022/12/27 10:32:04;;;;;;;5.07;4.63;;;;;;;4.66;100.00;97908.28;4977379;28;20176;-76
2022/12/27 10:34:29;;;;;;;5.33;4.90;;;;;;;4.86;100.00;97897.41;4977214;28;20584;-76
2022/12/27 10:36:55;;;;;;;4.63;4.40;;;;;;;4.83;100.00;97907.31;4977320;28;20216;-75
2022/12/27 10:39:26;;;;;;;4.97;4.60;;;;;;;4.87;100.00;97906.84;4977220;28;20236;-76
2022/12/27 10:42:12;;;;;;;6.23;4.80;;;;;;;4.93;100.00;97905.38;4977425;28;20680;-76
2022/12/27 10:44:38;;;;;;;6.43;5.93;;;;;;;5.09;100.00;97907.94;4977826;28;20631;-76
2022/12/27 10:47:04;;;;;;;11.03;10.43;;;;;;;5.13;100.00;97901.44;4976760;28;20263;-76
2022/12/27 10:49:32;;;;;;;7.07;6.47;;;;;;;5.07;100.00;97907.28;4977310;28;20187;-78
2022/12/27 10:52:07;;;;;;;5.27;4.77;;;;;;;5.25;100.00;97907.13;4976941;28;20181;-76
2022/12/27 10:54:32;;;;;;;88.47;83.47;;;;;;;5.18;99.83;97909.59;4977380;28;20224;-76
2022/12/27 10:57:27;;;;;;;48.80;45.37;;;;;;;5.31;99.44;97901.25;4977060;28;20287;-77
2022/12/27 11:00:16;;;;;;;31.07;28.97;;;;;;;5.47;97.68;97903.81;4964677;28;20279;-76
2022/12/27 11:02:56;;;;;;;11.90;11.20;;;;;;;5.42;96.75;97901.72;4977642;28;20200;-75
2022/12/27 11:05:32;;;;;;;5.23;4.83;;;;;;;5.61;98.01;97899.72;4977193;28;20173;-76
2022/12/27 11:08:00;;;;;;;5.33;4.93;;;;;;;5.66;97.12;97900.84;4979005;28;20184;-75
2022/12/27 11:10:30;;;;;;;4.73;4.47;;;;;;;5.57;97.74;97908.84;4978830;28;20207;-75
2022/12/27 11:13:05;;;;;;;6.97;6.40;;;;;;;5.73;97.04;97904.41;4983686;28;20185;-75
2022/12/27 11:15:36;;;;;;;6.53;6.03;;;;;;;5.94;95.32;97903.03;4981203;28;20183;-75
2022/12/27 11:18:16;;;;;;;17.63;16.63;;;;;;;5.82;92.46;97903.38;4960851;28;20181;-75
2022/12/27 11:20:53;;;;;;;16.43;15.37;;;;;;;5.86;93.59;97899.44;4967311;28;20272;-75
2022/12/27 11:23:22;;;;;;;14.33;13.30;;;;;;;5.96;92.91;97899.31;4959254;28;20204;-75
2022/12/27 11:25:53;;;;;;;17.20;16.00;;;;;;;5.86;95.91;97904.66;4976038;28;20255;-75
2022/12/27 11:28:38;;;;;;;14.37;13.57;;;;;;;5.97;94.83;97900.09;4976536;28;20193;-75
2022/12/27 11:31:24;;;;;;;11.50;10.70;;;;;;;6.01;93.16;97898.78;4976420;28;20612;-75
2022/12/27 11:33:55;;;;;;;13.13;12.17;;;;;;;6.05;93.36;97906.06;4975454;28;20538;-76
2022/12/27 11:36:34;;;;;;;168.60;158.70;;;;;;;5.95;92.24;97904.66;4977068;28;20255;-76
2022/12/27 11:39:00;;;;;;;6.30;5.80;;;;;;;5.80;91.22;97899.31;4976428;28;20205;-76
2022/12/27 11:41:39;;;;;;;7.17;6.60;;;;;;;5.76;91.75;97887.63;4970708;28;20535;-76
2022/12/27 11:44:12;;;;;;;7.90;7.23;;;;;;;5.85;90.99;97887.41;4976084;28;20273;-76
2022/12/27 11:47:00;;;;;;;13.33;12.40;;;;;;;5.88;91.52;97885.50;4975813;28;20176;-76
2022/12/27 11:49:39;;;;;;;11.57;10.77;;;;;;;5.97;91.83;97884.47;4975848;28;20181;-77
2022/12/27 11:52:32;;;;;;;9.90;9.30;;;;;;;6.16;90.70;97884.88;4976243;28;20227;-76
2022/12/27 11:55:35;;;;;;;11.00;10.30;;;;;;;6.34;89.19;97884.59;4975635;28;20232;-73
2022/12/27 11:58:16;;;;;;;8.27;7.57;;;;;;;6.29;90.14;97881.72;4962874;28;20184;-76
2022/12/27 12:01:05;;;;;;;5.63;5.13;;;;;;;6.50;88.38;97871.47;4975688;28;20236;-76
2022/12/27 12:04:02;;;;;;;8.23;7.70;;;;;;;6.60;88.57;97869.44;4975587;28;20177;-76
2022/12/27 12:06:52;;;;;;;16.00;15.10;;;;;;;6.82;87.34;97874.81;4976177;28;20169;-76
2022/12/27 12:09:46;;;;;;;11.00;10.37;;;;;;;6.59;87.05;97877.41;4976068;28;20169;-75
2022/12/27 12:12:43;;;;;;;11.10;10.50;;;;;;;6.63;86.32;97871.69;4976058;28;20304;-74
2022/12/27 12:15:32;;;;;;;10.10;9.57;;;;;;;6.49;86.22;97876.84;4957456;28;20610;-75
2022/12/27 12:18:16;;;;;;;8.53;7.93;;;;;;;6.63;86.53;97868.28;4972586;28;20184;-75
2022/12/27 12:21:13;;;;;;;9.03;8.37;;;;;;;6.77;86.10;97869.31;4974599;28;20208;-75
2022/12/27 12:23:57;;;;;;;8.50;7.90;;;;;;;6.64;86.90;97872.50;4975213;28;20185;-75
2022/12/27 12:26:25;;;;;;;7.40;6.90;;;;;;;6.41;87.94;97866.50;4974380;28;20280;-74
2022/12/27 12:29:33;;;;;;;6.27;5.97;;;;;;;6.58;86.84;97857.56;4975272;28;20550;-75
2022/12/27 12:32:27;;;;;;;9.57;8.97;;;;;;;6.54;86.24;97864.94;4961768;28;20204;-74
2022/12/27 12:35:17;;;;;;;10.50;9.80;;;;;;;6.52;86.40;97868.72;4975514;28;20199;-74
2022/12/27 12:38:03;;;;;;;9.50;8.73;;;;;;;6.45;86.54;97880.78;4976246;28;20209;-75
2022/12/27 12:40:29;;;;;;;15.67;14.77;;;;;;;6.65;86.42;97867.13;4974711;28;20223;-75
2022/12/27 12:43:19;;;;;;;6.57;6.17;;;;;;;6.80;85.55;97868.97;4974789;28;20656;-74
2022/12/27 12:46:22;;;;;;;6.33;5.87;;;;;;;6.99;85.05;97874.50;4975037;28;20199;-75
2022/12/27 12:48:54;;;;;;;5.20;4.70;;;;;;;7.00;84.86;97878.72;4975348;28;20218;-75
2022/12/27 12:51:35;;;;;;;4.07;3.37;;;;;;;7.15;84.29;97875.31;4974398;28;20592;-74
2022/12/27 12:54:15;;;;;;;4.33;4.03;;;;;;;7.56;83.06;97873.91;4974895;28;20180;-74
2022/12/27 12:57:00;;;;;;;5.80;5.17;;;;;;;7.56;82.44;97871.31;4974791;28;20188;-74
2022/12/27 12:59:26;;;;;;;21.30;19.93;;;;;;;7.54;82.21;97868.06;4974240;28;20184;-74
2022/12/27 13:01:51;;;;;;;23.57;22.33;;;;;;;7.58;82.28;97866.69;4974580;28;20196;-74
2022/12/27 13:04:35;;;;;;;16.33;15.43;;;;;;;7.69;81.53;97870.66;4974448;28;20193;-74
2022/12/27 13:07:20;;;;;;;11.47;10.50;;;;;;;7.35;82.75;97861.59;4974272;28;20180;-74
2022/12/27 13:10:14;;;;;;;10.67;9.70;;;;;;;7.09;84.83;97856.78;4974814;28;20180;-74
2022/12/27 13:12:55;;;;;;;8.37;7.77;;;;;;;7.25;83.13;97849.78;4973691;28;20761;-74
2022/12/27 13:15:53;;;;;;;7.47;6.80;;;;;;;7.49;82.58;97855.56;4974550;28;20173;-74
2022/12/27 13:18:30;;;;;;;11.30;10.60;;;;;;;7.35;83.78;97852.97;4971301;28;20259;-74
2022/12/27 13:21:08;;;;;;;7.17;6.67;;;;;;;7.33;81.58;97847.09;4973641;28;20207;-74
2022/12/27 13:23:40;;;;;;;7.70;7.13;;;;;;;7.10;84.08;97855.81;4974643;28;20520;-74
2022/12/27 13:26:16;;;;;;;12.57;11.47;;;;;;;7.14;84.47;97853.66;4973677;28;20210;-74
2022/12/27 13:28:57;;;;;;;12.67;11.83;;;;;;;6.84;84.66;97847.59;4974816;28;20263;-74
2022/12/27 13:31:35;;;;;;;13.60;12.90;;;;;;;6.78;85.93;97855.31;4973871;28;20177;-74
2022/12/27 13:34:28;;;;;;;8.17;7.53;;;;;;;6.91;86.38;97845.88;4974194;28;20216;-74